Time;durP1;ratioP1;P1;durP2;ratioP2;P2;SDS_P1;SDS_P2;PMS_P1;PMS_P2;Temp;Humidity;BMP_temperature;BMP_pressure;BME280_temperature;BME280_humidity;BME280_pressure;Samples;Min_cycle;Max_cycle;Signal;HPM_P1;HPM_P2
2023/08/04 00:01:53;;;;;;;;;;;15.70;99.90;;;;;;5005185;28;20025;-71
2023/08/04 00:04:20;;;;;;;;;;;15.60;99.90;;;;;;5005798;28;19993;-71
2023/08/04 00:06:46;;;;;;;;;;;15.60;99.90;;;;;;4985653;28;19965;-71
2023/08/04 00:09:13;;;;;;;;;;;15.60;99.90;;;;;;4986035;28;20146;-71
2023/08/04 00:11:40;;;;;;;;;;;15.60;99.90;;;;;;4985792;28;19922;-71
2023/08/04 00:14:07;;;;;;;;;;;15.50;99.90;;;;;;4986238;28;19921;-71
2023/08/04 00:16:34;;;;;;;;;;;15.50;99.90;;;;;;4985750;28;20121;-70
2023/08/04 00:19:01;;;;;;;;;;;15.50;99.90;;;;;;4985715;28;19922;-71
2023/08/04 00:21:27;;;;;;;;;;;15.50;99.90;;;;;;4985975;28;19922;-71
2023/08/04 00:23:57;;;;;;;;;;;15.50;99.90;;;;;;4985684;28;20000;-71
2023/08/04 00:26:24;;;;;;;;;;;15.50;99.90;;;;;;4985305;28;19993;-71
2023/08/04 00:28:50;;;;;;;;;;;15.50;99.90;;;;;;4985651;28;19922;-71
2023/08/04 00:31:18;;;;;;;;;;;15.50;99.90;;;;;;4985750;28;19922;-71
2023/08/04 00:33:45;;;;;;;;;;;15.40;99.90;;;;;;4986439;28;19985;-71
2023/08/04 00:36:12;;;;;;;;;;;15.40;99.90;;;;;;5000130;28;19921;-71
2023/08/04 00:38:38;;;;;;;;;;;15.40;99.90;;;;;;5005144;28;19928;-71
2023/08/04 00:41:05;;;;;;;;;;;15.40;99.90;;;;;;4996098;28;19959;-71
2023/08/04 00:43:31;;;;;;;;;;;15.40;99.90;;;;;;4985696;28;19922;-71
2023/08/04 00:45:58;;;;;;;;;;;15.40;99.90;;;;;;4984764;28;19936;-71
2023/08/04 00:48:26;;;;;;;;;;;15.40;99.90;;;;;;4985497;28;19922;-71
2023/08/04 00:50:53;;;;;;;;;;;15.40;99.90;;;;;;4985592;28;19960;-71
2023/08/04 00:53:19;;;;;;;;;;;15.40;99.90;;;;;;5004377;28;19981;-71
2023/08/04 00:55:46;;;;;;;;;;;15.30;99.90;;;;;;4996538;28;20120;-71
2023/08/04 00:58:13;;;;;;;;;;;15.30;99.90;;;;;;5004419;28;20165;-72
2023/08/04 01:00:40;;;;;;;;;;;15.30;99.90;;;;;;5005219;28;19989;-71
2023/08/04 01:03:07;;;;;;;;;;;15.30;99.90;;;;;;5004828;28;20140;-71
2023/08/04 01:05:37;;;;;;;;;;;15.30;99.90;;;;;;5004550;28;20159;-71
2023/08/04 01:08:08;;;;;;;;;;;15.20;99.90;;;;;;5004243;28;19964;-71
2023/08/04 01:10:42;;;;;;;;;;;15.20;99.90;;;;;;5004842;28;19922;-71
2023/08/04 01:13:10;;;;;;;;;;;15.20;99.90;;;;;;5004283;28;19980;-71
2023/08/04 01:15:38;;;;;;;;;;;15.20;99.90;;;;;;4990047;28;19990;-71
2023/08/04 01:18:05;;;;;;;;;;;15.20;99.90;;;;;;4984772;28;19984;-70
2023/08/04 01:20:32;;;;;;;;;;;15.20;99.90;;;;;;4985146;28;20158;-71
2023/08/04 01:23:00;;;;;;;;;;;15.10;99.90;;;;;;4984855;28;19922;-71
2023/08/04 01:25:29;;;;;;;;;;;15.10;99.90;;;;;;4984982;28;20108;-71
2023/08/04 01:27:58;;;;;;;;;;;15.10;99.90;;;;;;4987415;28;19984;-71
2023/08/04 01:30:27;;;;;;;;;;;15.10;99.90;;;;;;4989215;28;19953;-71
2023/08/04 01:32:54;;;;;;;;;;;15.10;99.90;;;;;;5004125;28;19929;-71
2023/08/04 01:35:21;;;;;;;;;;;15.00;99.90;;;;;;5004014;28;19921;-71
2023/08/04 01:37:49;;;;;;;;;;;15.00;99.90;;;;;;4997261;28;20162;-71
2023/08/04 01:40:17;;;;;;;;;;;15.00;99.90;;;;;;4984611;28;20206;-71
2023/08/04 01:42:57;;;;;;;;;;;15.00;99.90;;;;;;4984509;28;19990;-71
2023/08/04 01:45:30;;;;;;;;;;;15.00;99.90;;;;;;4984771;28;19929;-71
2023/08/04 01:47:56;;;;;;;;;;;15.00;99.90;;;;;;4983875;28;19922;-71
2023/08/04 01:50:23;;;;;;;;;;;14.90;99.90;;;;;;4993218;28;20265;-71
2023/08/04 01:53:12;;;;;;;;;;;14.90;99.90;;;;;;5004012;28;19953;-71
2023/08/04 01:55:53;;;;;;;;;;;15.00;99.90;;;;;;5003952;28;19928;-71
2023/08/04 01:58:20;;;;;;;;;;;14.90;99.90;;;;;;4985200;28;19981;-71
2023/08/04 02:00:47;;;;;;;;;;;14.90;99.90;;;;;;4995318;28;19922;-71
2023/08/04 02:03:28;;;;;;;;;;;14.80;99.90;;;;;;5001796;28;19929;-71
2023/08/04 02:06:02;;;;;;;;;;;14.80;99.90;;;;;;5003159;28;19993;-71
2023/08/04 02:08:53;;;;;;;;;;;14.90;99.90;;;;;;4990361;28;20000;-73
2023/08/04 02:11:41;;;;;;;;;;;14.80;99.90;;;;;;5003579;28;19984;-71
2023/08/04 02:14:08;;;;;;;;;;;14.80;99.90;;;;;;4995203;28;20225;-71
2023/08/04 02:16:34;;;;;;;;;;;14.80;99.90;;;;;;5007059;28;19953;-71
2023/08/04 02:19:09;;;;;;;;;;;14.70;99.90;;;;;;5007496;28;20206;-71
2023/08/04 02:21:46;;;;;;;;;;;14.70;99.90;;;;;;5006091;28;19928;-71
2023/08/04 02:24:19;;;;;;;;;;;14.60;99.90;;;;;;5007896;28;19968;-71
2023/08/04 02:26:52;;;;;;;;;;;14.60;99.90;;;;;;5006694;28;19921;-71
2023/08/04 02:29:18;;;;;;;;;;;14.60;99.90;;;;;;5007581;28;19964;-71
2023/08/04 02:31:45;;;;;;;;;;;14.60;99.90;;;;;;5007460;28;20053;-71
2023/08/04 02:40:26;;;;;;;;;;;14.60;99.90;;;;;;4983692;28;19918;-71
2023/08/04 02:42:54;;;;;;;;;;;14.60;99.90;;;;;;5007096;28;20062;-72
2023/08/04 02:52:14;;;;;;;;;;;14.50;99.90;;;;;;4908433;29;19986;-71
2023/08/04 02:54:41;;;;;;;;;;;14.50;99.90;;;;;;4916157;29;19936;-72
2023/08/04 03:03:11;;;;;;;;;;;14.60;99.90;;;;;;4928011;29;19918;-71
2023/08/04 03:05:37;;;;;;;;;;;14.60;99.90;;;;;;4949528;28;19953;-72
2023/08/04 03:08:04;;;;;;;;;;;14.60;99.90;;;;;;5006450;28;19928;-71
2023/08/04 03:10:31;;;;;;;;;;;14.60;99.90;;;;;;5007066;28;20002;-71
2023/08/04 03:12:57;;;;;;;;;;;14.50;99.90;;;;;;5006997;28;20113;-71
2023/08/04 03:15:24;;;;;;;;;;;14.50;99.90;;;;;;5006938;28;19989;-71
2023/08/04 03:17:51;;;;;;;;;;;14.50;99.90;;;;;;5006353;28;19921;-71
2023/08/04 03:20:19;;;;;;;;;;;14.60;99.90;;;;;;5006830;28;19994;-71
2023/08/04 03:22:45;;;;;;;;;;;14.60;99.90;;;;;;4989720;28;19994;-71
2023/08/04 03:25:12;;;;;;;;;;;14.60;99.90;;;;;;4986016;28;19922;-71
2023/08/04 03:27:39;;;;;;;;;;;14.70;99.90;;;;;;4986651;28;20010;-71
2023/08/04 03:30:06;;;;;;;;;;;14.70;99.90;;;;;;4987234;28;19922;-71
2023/08/04 03:32:32;;;;;;;;;;;14.70;99.90;;;;;;4986920;28;19985;-72
2023/08/04 03:34:59;;;;;;;;;;;14.70;99.90;;;;;;4995896;28;20172;-71
2023/08/04 03:37:27;;;;;;;;;;;14.70;99.90;;;;;;5005936;28;19960;-71
2023/08/04 03:39:54;;;;;;;;;;;14.80;99.90;;;;;;5006305;28;19929;-71
2023/08/04 03:42:20;;;;;;;;;;;14.80;99.90;;;;;;5006078;28;19922;-71
2023/08/04 03:44:47;;;;;;;;;;;14.80;99.90;;;;;;5006050;28;19953;-71
2023/08/04 03:47:14;;;;;;;;;;;14.80;99.90;;;;;;5005389;28;20285;-71
2023/08/04 03:49:40;;;;;;;;;;;14.90;99.90;;;;;;5006028;28;20233;-73
2023/08/04 03:52:07;;;;;;;;;;;14.90;99.90;;;;;;5005882;28;19929;-71
2023/08/04 03:54:35;;;;;;;;;;;14.90;99.90;;;;;;5006265;28;19928;-71
2023/08/04 03:57:02;;;;;;;;;;;14.90;99.90;;;;;;5005178;28;19926;-71
2023/08/04 03:59:29;;;;;;;;;;;14.90;99.90;;;;;;5005879;28;19929;-71
2023/08/04 04:01:55;;;;;;;;;;;14.90;99.90;;;;;;5005810;28;19922;-71
2023/08/04 04:04:22;;;;;;;;;;;14.90;99.90;;;;;;5005752;28;19960;-71
2023/08/04 04:06:49;;;;;;;;;;;15.00;99.90;;;;;;5004811;28;19980;-71
2023/08/04 04:09:15;;;;;;;;;;;15.00;99.90;;;;;;5005191;28;20090;-72
2023/08/04 04:11:43;;;;;;;;;;;15.00;99.90;;;;;;5005497;28;20319;-71
2023/08/04 04:14:10;;;;;;;;;;;15.00;99.90;;;;;;5005786;28;19957;-71
2023/08/04 04:16:37;;;;;;;;;;;15.10;99.90;;;;;;5004754;28;19964;-71
2023/08/04 04:19:03;;;;;;;;;;;15.10;99.90;;;;;;5005567;28;19984;-71
2023/08/04 04:21:30;;;;;;;;;;;15.00;99.90;;;;;;5005661;28;20173;-71
2023/08/04 04:23:57;;;;;;;;;;;15.00;99.90;;;;;;4991442;28;19927;-71
2023/08/04 04:26:24;;;;;;;;;;;15.00;99.90;;;;;;4985604;28;20113;-71
2023/08/04 04:28:52;;;;;;;;;;;14.90;99.90;;;;;;4986297;28;19929;-71
2023/08/04 04:31:19;;;;;;;;;;;14.90;99.90;;;;;;4985879;28;20001;-71
2023/08/04 04:33:45;;;;;;;;;;;14.90;99.90;;;;;;4986108;28;19922;-71
2023/08/04 04:36:12;;;;;;;;;;;14.90;99.90;;;;;;4984683;28;19928;-71
2023/08/04 04:38:39;;;;;;;;;;;14.90;99.90;;;;;;4985681;28;20227;-72
2023/08/04 04:41:05;;;;;;;;;;;14.90;99.90;;;;;;4986053;28;19990;-70
2023/08/04 04:43:32;;;;;;;;;;;14.90;99.90;;;;;;4985555;28;20209;-70
2023/08/04 04:46:00;;;;;;;;;;;14.90;99.90;;;;;;4985309;28;19937;-71
2023/08/04 04:48:26;;;;;;;;;;;14.90;99.90;;;;;;4985569;28;19922;-72
2023/08/04 04:50:53;;;;;;;;;;;14.90;99.90;;;;;;4985505;28;20253;-71
2023/08/04 04:53:20;;;;;;;;;;;14.90;99.90;;;;;;4986298;28;19964;-71
2023/08/04 04:55:46;;;;;;;;;;;15.00;99.90;;;;;;5004733;28;20091;-71
2023/08/04 04:58:14;;;;;;;;;;;14.90;99.90;;;;;;5004538;28;19988;-71
2023/08/04 05:00:41;;;;;;;;;;;15.00;99.90;;;;;;5004969;28;19922;-71
2023/08/04 05:03:10;;;;;;;;;;;15.00;99.90;;;;;;5005067;28;19964;-71
2023/08/04 05:05:37;;;;;;;;;;;15.00;99.90;;;;;;5004462;28;20149;-75
2023/08/04 05:08:04;;;;;;;;;;;15.10;99.90;;;;;;5003959;28;20086;-71
2023/08/04 05:10:31;;;;;;;;;;;15.10;99.90;;;;;;5004604;28;19957;-72
2023/08/04 05:12:58;;;;;;;;;;;15.10;99.90;;;;;;5004626;28;19964;-71
2023/08/04 05:15:24;;;;;;;;;;;15.10;99.90;;;;;;5004777;28;19922;-71
2023/08/04 05:17:51;;;;;;;;;;;15.10;99.90;;;;;;5003981;28;19992;-71
2023/08/04 05:20:19;;;;;;;;;;;15.10;99.90;;;;;;4989182;28;20270;-72
2023/08/04 05:22:46;;;;;;;;;;;15.20;99.90;;;;;;4984881;28;19941;-71
2023/08/04 05:25:12;;;;;;;;;;;15.20;99.90;;;;;;4984985;28;19944;-71
2023/08/04 05:27:39;;;;;;;;;;;15.30;99.90;;;;;;4984557;28;19972;-71
2023/08/04 05:30:06;;;;;;;;;;;15.30;99.90;;;;;;4985218;28;19961;-71
2023/08/04 05:32:33;;;;;;;;;;;15.40;99.90;;;;;;5004265;28;19992;-71
2023/08/04 05:35:00;;;;;;;;;;;15.40;99.90;;;;;;5004478;28;20566;-72
2023/08/04 05:37:28;;;;;;;;;;;15.50;99.90;;;;;;5003911;28;19953;-71
2023/08/04 05:39:54;;;;;;;;;;;15.50;99.90;;;;;;4985033;28;19954;-71
2023/08/04 05:42:21;;;;;;;;;;;15.60;99.90;;;;;;4986183;28;19961;-72
2023/08/04 05:44:47;;;;;;;;;;;15.60;99.90;;;;;;5004149;28;19994;-71
2023/08/04 05:47:14;;;;;;;;;;;15.60;99.90;;;;;;5004615;28;19928;-71
2023/08/04 05:49:41;;;;;;;;;;;15.60;99.90;;;;;;5008263;28;19988;-71
2023/08/04 05:52:08;;;;;;;;;;;15.70;99.90;;;;;;5008326;28;19961;-71
2023/08/04 05:54:36;;;;;;;;;;;15.70;99.90;;;;;;5008506;28;19992;-72
2023/08/04 05:57:02;;;;;;;;;;;15.80;99.90;;;;;;5001491;28;19957;-73
2023/08/04 05:59:29;;;;;;;;;;;15.70;99.90;;;;;;4988841;28;20146;-71
2023/08/04 06:01:56;;;;;;;;;;;15.80;99.90;;;;;;4988438;28;19922;-71
2023/08/04 06:04:23;;;;;;;;;;;15.70;99.90;;;;;;5001924;28;19921;-71
2023/08/04 06:06:49;;;;;;;;;;;15.80;99.90;;;;;;5007208;28;19961;-71
2023/08/04 06:09:16;;;;;;;;;;;15.80;99.90;;;;;;5008007;28;19922;-71
2023/08/04 06:11:44;;;;;;;;;;;15.80;99.90;;;;;;5007905;28;19953;-71
2023/08/04 06:14:10;;;;;;;;;;;15.90;99.90;;;;;;5008166;28;19960;-71
2023/08/04 06:16:37;;;;;;;;;;;16.00;99.90;;;;;;5007242;28;19985;-71
2023/08/04 06:19:04;;;;;;;;;;;16.00;99.90;;;;;;5007679;28;19982;-71
2023/08/04 06:21:35;;;;;;;;;;;16.10;99.90;;;;;;5000206;28;19960;-71
2023/08/04 06:24:03;;;;;;;;;;;16.10;99.90;;;;;;5007717;28;20261;-71
2023/08/04 06:26:29;;;;;;;;;;;16.10;99.90;;;;;;5006963;28;20209;-71
2023/08/04 06:28:57;;;;;;;;;;;16.10;99.90;;;;;;5007548;28;19998;-71
2023/08/04 06:31:24;;;;;;;;;;;16.10;99.90;;;;;;5007687;28;20053;-71
2023/08/04 06:33:51;;;;;;;;;;;16.10;99.90;;;;;;5007643;28;19989;-70
2023/08/04 06:36:17;;;;;;;;;;;16.10;99.90;;;;;;4990601;28;19922;-71
2023/08/04 06:38:44;;;;;;;;;;;16.10;99.90;;;;;;4988106;28;19922;-70
2023/08/04 06:41:10;;;;;;;;;;;16.20;99.90;;;;;;4988083;28;20164;-70
2023/08/04 06:43:37;;;;;;;;;;;16.20;99.90;;;;;;4988043;28;19965;-70
2023/08/04 06:46:05;;;;;;;;;;;16.30;99.90;;;;;;4987210;28;20173;-71
2023/08/04 06:48:31;;;;;;;;;;;16.30;99.90;;;;;;4990205;28;19989;-71
2023/08/04 06:50:58;;;;;;;;;;;16.30;99.90;;;;;;4987683;28;19922;-70
2023/08/04 06:53:25;;;;;;;;;;;16.40;99.90;;;;;;4987614;28;19989;-70
2023/08/04 06:55:51;;;;;;;;;;;16.40;99.90;;;;;;4987173;28;19948;-71
2023/08/04 06:58:18;;;;;;;;;;;16.50;99.90;;;;;;4996894;28;19930;-71
2023/08/04 07:00:45;;;;;;;;;;;16.50;99.90;;;;;;5007231;28;19954;-70
2023/08/04 07:03:14;;;;;;;;;;;16.60;99.90;;;;;;5007089;28;19922;-70
2023/08/04 07:05:41;;;;;;;;;;;16.60;99.90;;;;;;4987098;28;19922;-70
2023/08/04 07:08:07;;;;;;;;;;;16.70;99.90;;;;;;4993308;28;19992;-70
2023/08/04 07:10:34;;;;;;;;;;;16.70;99.90;;;;;;5006969;28;19922;-72
2023/08/04 07:13:00;;;;;;;;;;;16.80;99.90;;;;;;5006847;28;19989;-71
2023/08/04 07:15:27;;;;;;;;;;;16.80;99.90;;;;;;5004305;28;19922;-70
2023/08/04 07:17:54;;;;;;;;;;;16.90;99.90;;;;;;5006163;28;19957;-71
2023/08/04 07:20:22;;;;;;;;;;;17.00;99.90;;;;;;5004695;28;19985;-70
2023/08/04 07:22:49;;;;;;;;;;;17.10;99.90;;;;;;5006679;28;19984;-70
2023/08/04 07:25:16;;;;;;;;;;;17.10;99.90;;;;;;5006367;28;19922;-70
2023/08/04 07:27:43;;;;;;;;;;;17.20;99.90;;;;;;5003433;28;19989;-70
2023/08/04 07:30:11;;;;;;;;;;;17.20;99.90;;;;;;5006103;28;19984;-70
2023/08/04 07:32:37;;;;;;;;;;;17.20;99.90;;;;;;5005371;28;19921;-71
2023/08/04 07:35:04;;;;;;;;;;;17.30;99.90;;;;;;5004991;28;19957;-71
2023/08/04 07:37:32;;;;;;;;;;;17.30;99.90;;;;;;5001395;28;19957;-71
2023/08/04 07:40:01;;;;;;;;;;;17.40;99.90;;;;;;5002935;28;19957;-71
2023/08/04 07:42:29;;;;;;;;;;;17.40;99.90;;;;;;5005117;28;19961;-70
2023/08/04 07:44:56;;;;;;;;;;;17.40;99.90;;;;;;5005301;28;19922;-70
2023/08/04 07:47:22;;;;;;;;;;;17.40;99.90;;;;;;4989856;28;19999;-71
2023/08/04 07:49:49;;;;;;;;;;;17.40;99.90;;;;;;4990315;28;19921;-72
2023/08/04 07:52:16;;;;;;;;;;;17.50;99.90;;;;;;5005184;28;19922;-71
2023/08/04 07:54:43;;;;;;;;;;;17.60;99.90;;;;;;5004497;28;20247;-71
2023/08/04 07:57:10;;;;;;;;;;;17.60;99.90;;;;;;5004198;28;19993;-71
2023/08/04 07:59:40;;;;;;;;;;;17.70;99.90;;;;;;5002221;28;19922;-70
2023/08/04 08:02:06;;;;;;;;;;;17.90;99.90;;;;;;5004942;28;19964;-72
2023/08/04 08:04:33;;;;;;;;;;;18.00;99.90;;;;;;5005074;28;20158;-71
2023/08/04 08:07:00;;;;;;;;;;;18.10;99.90;;;;;;5004281;28;19922;-71
2023/08/04 08:09:26;;;;;;;;;;;18.20;99.90;;;;;;5004486;28;20121;-71
2023/08/04 08:11:54;;;;;;;;;;;18.30;99.90;;;;;;5004385;28;19922;-71
2023/08/04 08:14:21;;;;;;;;;;;18.30;99.90;;;;;;5004868;28;19984;-71
2023/08/04 08:16:48;;;;;;;;;;;18.30;99.90;;;;;;5003900;28;19984;-71
2023/08/04 08:19:15;;;;;;;;;;;18.20;99.90;;;;;;5004410;28;20280;-71
2023/08/04 08:21:41;;;;;;;;;;;18.20;99.90;;;;;;4985724;28;19990;-70
2023/08/04 08:24:08;;;;;;;;;;;18.20;99.90;;;;;;4985299;28;19987;-71
2023/08/04 08:26:34;;;;;;;;;;;18.10;99.90;;;;;;4984896;28;19922;-72
2023/08/04 08:29:02;;;;;;;;;;;18.10;99.90;;;;;;4984995;28;20202;-71
2023/08/04 08:31:29;;;;;;;;;;;18.10;99.90;;;;;;4924729;28;1745633;-71
2023/08/04 08:33:56;;;;;;;;;;;18.20;99.90;;;;;;4986033;28;19922;-71
2023/08/04 08:36:22;;;;;;;;;;;18.30;99.90;;;;;;4985249;28;20178;-71
2023/08/04 08:38:49;;;;;;;;;;;18.40;99.90;;;;;;4985917;28;19953;-71
2023/08/04 08:41:15;;;;;;;;;;;18.50;99.90;;;;;;4985771;28;19922;-71
2023/08/04 08:43:44;;;;;;;;;;;18.60;99.90;;;;;;4985277;28;19985;-71
2023/08/04 08:46:12;;;;;;;;;;;18.60;99.90;;;;;;4984803;28;19984;-71
2023/08/04 08:48:41;;;;;;;;;;;18.70;99.90;;;;;;4985362;28;20099;-71
2023/08/04 08:51:08;;;;;;;;;;;18.80;99.90;;;;;;4985601;28;19957;-71
2023/08/04 08:53:35;;;;;;;;;;;19.00;99.90;;;;;;4985551;28;19954;-71
2023/08/04 08:56:03;;;;;;;;;;;19.00;99.90;;;;;;4984499;28;20210;-71
2023/08/04 08:58:31;;;;;;;;;;;19.10;99.90;;;;;;4985419;28;19984;-72
2023/08/04 09:00:58;;;;;;;;;;;19.10;99.90;;;;;;4985146;28;19922;-71
2023/08/04 09:03:26;;;;;;;;;;;19.20;99.90;;;;;;4990797;28;20108;-72
2023/08/04 09:05:52;;;;;;;;;;;19.20;99.90;;;;;;5004334;28;19964;-71
2023/08/04 09:08:19;;;;;;;;;;;19.30;99.90;;;;;;5004411;28;19922;-71
2023/08/04 09:10:47;;;;;;;;;;;19.40;99.90;;;;;;5004760;28;19944;-72
2023/08/04 09:13:13;;;;;;;;;;;19.40;99.90;;;;;;5004581;28;19921;-71
2023/08/04 09:15:47;;;;;;;;;;;19.50;99.90;;;;;;5004075;28;19985;-71
2023/08/04 09:18:24;;;;;;;;;;;19.50;99.90;;;;;;4984801;28;20248;-71
2023/08/04 09:21:10;;;;;;;;;;;19.60;99.90;;;;;;4999182;28;20029;-71
2023/08/04 09:23:37;;;;;;;;;;;19.60;99.90;;;;;;5004679;28;19980;-72
2023/08/04 09:26:03;;;;;;;;;;;19.80;99.90;;;;;;5003736;28;19957;-71
2023/08/04 09:28:30;;;;;;;;;;;19.90;99.90;;;;;;5039935;23;19971;-78
2023/08/04 09:31:00;;;;;;;;;;;20.10;99.90;;;;;;5011716;28;19953;-77
2023/08/04 09:33:27;;;;;;;;;;;20.20;99.90;;;;;;5020479;28;20149;-77
2023/08/04 09:36:00;;;;;;;;;;;20.30;99.90;;;;;;5004390;28;19985;-78
2023/08/04 09:38:28;;;;;;;;;;;20.30;99.90;;;;;;4985281;28;19998;-77
2023/08/04 09:40:59;;;;;;;;;;;20.20;99.90;;;;;;4990103;28;20004;-77
2023/08/04 09:43:26;;;;;;;;;;;20.20;99.90;;;;;;4990951;28;19922;-77
2023/08/04 09:45:54;;;;;;;;;;;20.20;99.90;;;;;;5003902;28;19960;-76
2023/08/04 09:48:25;;;;;;;;;;;20.10;99.90;;;;;;5004310;28;19997;-77
2023/08/04 09:51:10;;;;;;;;;;;20.10;99.90;;;;;;5005429;28;20252;-76
2023/08/04 09:53:42;;;;;;;;;;;20.10;99.90;;;;;;5004663;28;19926;-77
2023/08/04 09:56:09;;;;;;;;;;;20.00;99.90;;;;;;5003506;28;19945;-76
2023/08/04 09:58:36;;;;;;;;;;;20.00;99.90;;;;;;5003413;28;19985;-77
2023/08/04 10:01:02;;;;;;;;;;;20.00;99.90;;;;;;5002053;28;19993;-77
2023/08/04 10:03:29;;;;;;;;;;;19.90;99.90;;;;;;5002081;28;20081;-77
2023/08/04 10:05:59;;;;;;;;;;;19.90;99.90;;;;;;5004016;28;19984;-77
2023/08/04 10:08:26;;;;;;;;;;;19.90;99.90;;;;;;5002953;28;19922;-77
2023/08/04 10:10:57;;;;;;;;;;;20.00;99.90;;;;;;4996964;28;19981;-76
2023/08/04 10:13:25;;;;;;;;;;;20.00;99.90;;;;;;5003796;28;20260;-76
2023/08/04 10:15:51;;;;;;;;;;;20.00;99.90;;;;;;5004082;28;19980;-75
2023/08/04 10:18:18;;;;;;;;;;;20.10;99.90;;;;;;5003957;28;19984;-75
2023/08/04 10:20:45;;;;;;;;;;;20.20;99.90;;;;;;5003912;28;19922;-76
2023/08/04 10:23:12;;;;;;;;;;;20.30;99.90;;;;;;5003717;28;19957;-76
2023/08/04 10:25:38;;;;;;;;;;;20.40;99.90;;;;;;5004005;28;20188;-76
2023/08/04 10:28:06;;;;;;;;;;;20.50;99.90;;;;;;5003757;28;19989;-76
2023/08/04 10:30:33;;;;;;;;;;;20.50;99.90;;;;;;5004244;28;19921;-77
2023/08/04 10:33:09;;;;;;;;;;;20.50;99.90;;;;;;5004723;28;19922;-77
2023/08/04 10:35:56;;;;;;;;;;;20.50;99.90;;;;;;5007979;28;19965;-77
2023/08/04 10:38:43;;;;;;;;;;;20.50;99.90;;;;;;5007216;28;19985;-77
2023/08/04 10:41:10;;;;;;;;;;;20.40;99.90;;;;;;5008882;28;19928;-76
2023/08/04 10:43:39;;;;;;;;;;;20.40;99.90;;;;;;5000251;28;19961;-77
2023/08/04 10:46:10;;;;;;;;;;;20.50;99.90;;;;;;5006895;28;19926;-79
2023/08/04 10:48:39;;;;;;;;;;;20.50;99.90;;;;;;5008492;28;19926;-78
2023/08/04 10:51:07;;;;;;;;;;;20.50;99.90;;;;;;5008134;28;19928;-77
2023/08/04 10:53:33;;;;;;;;;;;20.50;99.90;;;;;;5008132;28;19985;-78
2023/08/04 10:56:01;;;;;;;;;;;20.50;99.90;;;;;;5007278;28;19989;-78
2023/08/04 10:58:29;;;;;;;;;;;20.60;99.90;;;;;;5011230;28;19922;-78
2023/08/04 11:00:57;;;;;;;;;;;20.60;99.90;;;;;;5008087;28;20149;-77
2023/08/04 11:03:24;;;;;;;;;;;20.70;99.90;;;;;;5007791;28;20153;-77
2023/08/04 11:05:50;;;;;;;;;;;20.60;99.90;;;;;;5007817;28;20278;-78
2023/08/04 11:08:17;;;;;;;;;;;20.70;99.90;;;;;;5007322;28;19925;-78
2023/08/04 11:10:45;;;;;;;;;;;20.70;99.90;;;;;;5007887;28;19957;-77
2023/08/04 11:13:12;;;;;;;;;;;20.70;99.90;;;;;;5007591;28;19922;-78
2023/08/04 11:15:42;;;;;;;;;;;20.60;99.90;;;;;;5006922;28;19944;-77
2023/08/04 11:18:11;;;;;;;;;;;20.60;99.90;;;;;;5006677;28;19929;-78
2023/08/04 11:20:39;;;;;;;;;;;20.60;99.90;;;;;;5007520;28;19964;-79
2023/08/04 11:23:06;;;;;;;;;;;20.60;99.90;;;;;;5007364;28;19928;-78
2023/08/04 11:25:33;;;;;;;;;;;20.70;99.90;;;;;;5006777;28;19990;-76
2023/08/04 11:28:01;;;;;;;;;;;20.70;99.90;;;;;;5005615;28;19937;-77
2023/08/04 11:30:28;;;;;;;;;;;20.70;99.90;;;;;;5005000;28;19956;-76
2023/08/04 11:32:54;;;;;;;;;;;20.80;99.90;;;;;;4988621;28;19950;-76
2023/08/04 11:35:23;;;;;;;;;;;20.80;99.90;;;;;;4990792;28;19981;-76
2023/08/04 11:37:49;;;;;;;;;;;20.90;99.90;;;;;;4988215;28;19922;-76
2023/08/04 11:40:20;;;;;;;;;;;21.00;99.90;;;;;;5006423;28;19922;-77
2023/08/04 11:42:47;;;;;;;;;;;21.10;99.90;;;;;;5005924;28;19929;-77
2023/08/04 11:45:14;;;;;;;;;;;21.20;99.90;;;;;;5005085;28;20010;-76
2023/08/04 11:47:41;;;;;;;;;;;21.20;99.90;;;;;;5006133;28;19964;-77
2023/08/04 11:50:08;;;;;;;;;;;21.20;99.90;;;;;;5000961;28;19963;-76
2023/08/04 11:52:38;;;;;;;;;;;21.20;99.90;;;;;;5001275;28;20033;-76
2023/08/04 11:55:05;;;;;;;;;;;21.20;99.90;;;;;;5006115;28;19929;-75
2023/08/04 11:57:32;;;;;;;;;;;21.30;99.90;;;;;;5005197;28;19930;-77
2023/08/04 11:59:58;;;;;;;;;;;21.20;99.90;;;;;;4999492;28;19996;-76
2023/08/04 12:02:26;;;;;;;;;;;21.20;99.90;;;;;;5006042;28;19929;-76
2023/08/04 12:05:14;;;;;;;;;;;21.20;99.90;;;;;;5005500;28;19965;-76
2023/08/04 12:07:42;;;;;;;;;;;21.30;99.90;;;;;;4983151;28;19985;-75
2023/08/04 12:10:14;;;;;;;;;;;21.30;99.90;;;;;;4986268;28;19930;-76
2023/08/04 12:12:42;;;;;;;;;;;21.30;99.90;;;;;;4996973;28;19929;-75
2023/08/04 12:15:10;;;;;;;;;;;21.30;99.90;;;;;;5005358;28;19957;-75
2023/08/04 12:17:37;;;;;;;;;;;21.20;99.90;;;;;;5000797;28;19941;-75
2023/08/04 12:20:05;;;;;;;;;;;21.20;99.90;;;;;;4985742;28;19965;-76
2023/08/04 12:22:31;;;;;;;;;;;21.20;99.90;;;;;;4983703;28;20276;-75
2023/08/04 12:24:59;;;;;;;;;;;21.20;99.90;;;;;;4985379;28;19989;-76
2023/08/04 12:27:26;;;;;;;;;;;21.20;99.90;;;;;;4985507;28;19993;-76
2023/08/04 12:29:53;;;;;;;;;;;21.20;99.90;;;;;;5005197;28;19968;-75
2023/08/04 12:32:20;;;;;;;;;;;21.00;99.90;;;;;;5004990;28;19953;-76
2023/08/04 12:34:47;;;;;;;;;;;21.00;99.90;;;;;;5005046;28;20185;-76
2023/08/04 12:37:13;;;;;;;;;;;20.90;99.90;;;;;;5004605;28;19988;-76
2023/08/04 12:39:40;;;;;;;;;;;21.00;99.90;;;;;;4985476;28;20116;-75
2023/08/04 12:42:08;;;;;;;;;;;21.00;99.90;;;;;;4985357;28;20289;-75
2023/08/04 12:44:35;;;;;;;;;;;21.20;99.90;;;;;;5002962;28;19949;-76
2023/08/04 12:47:02;;;;;;;;;;;21.40;99.90;;;;;;4989919;28;19930;-76
2023/08/04 12:49:29;;;;;;;;;;;21.80;99.90;;;;;;4985638;28;20229;-76
2023/08/04 12:51:56;;;;;;;;;;;22.20;99.90;;;;;;4998750;28;20225;-78
2023/08/04 12:54:23;;;;;;;;;;;22.40;99.90;;;;;;4982841;28;19960;-76
2023/08/04 12:56:50;;;;;;;;;;;22.30;99.90;;;;;;4984901;28;19930;-76
2023/08/04 12:59:18;;;;;;;;;;;22.10;99.90;;;;;;5004711;28;19929;-76
2023/08/04 13:01:45;;;;;;;;;;;21.90;99.90;;;;;;5005348;28;20174;-76
2023/08/04 13:04:11;;;;;;;;;;;21.80;99.90;;;;;;4997402;28;19921;-77
2023/08/04 13:06:38;;;;;;;;;;;21.80;99.90;;;;;;4992788;28;19930;-76
2023/08/04 13:09:05;;;;;;;;;;;21.90;99.90;;;;;;5000720;28;19996;-76
2023/08/04 13:11:31;;;;;;;;;;;21.90;99.90;;;;;;5004216;28;19989;-77
2023/08/04 13:13:58;;;;;;;;;;;21.80;99.90;;;;;;5005556;28;20016;-77
2023/08/04 13:16:26;;;;;;;;;;;21.50;99.90;;;;;;5005250;28;19956;-77
2023/08/04 13:18:53;;;;;;;;;;;21.40;99.90;;;;;;4995348;28;19993;-77
2023/08/04 13:21:20;;;;;;;;;;;21.40;99.90;;;;;;4989658;28;19930;-77
2023/08/04 13:23:47;;;;;;;;;;;21.50;99.90;;;;;;4998558;28;19922;-77
2023/08/04 13:26:14;;;;;;;;;;;21.70;99.90;;;;;;4993635;28;20157;-77
2023/08/04 13:28:40;;;;;;;;;;;21.70;99.90;;;;;;5002960;28;19940;-77
2023/08/04 13:31:11;;;;;;;;;;;21.90;99.90;;;;;;4998469;28;20206;-77
2023/08/04 13:33:39;;;;;;;;;;;21.90;99.90;;;;;;4994791;28;19929;-78
2023/08/04 13:36:07;;;;;;;;;;;22.10;99.90;;;;;;4999192;28;20172;-77
2023/08/04 13:38:34;;;;;;;;;;;22.10;99.90;;;;;;4991175;28;19964;-77
2023/08/04 13:41:00;;;;;;;;;;;22.20;99.90;;;;;;4993606;28;20145;-77
2023/08/04 13:43:27;;;;;;;;;;;22.30;99.90;;;;;;5005355;28;19997;-77
2023/08/04 13:45:54;;;;;;;;;;;22.30;99.90;;;;;;4995125;28;20251;-78
2023/08/04 13:48:20;;;;;;;;;;;22.20;99.90;;;;;;4994996;28;19961;-77
2023/08/04 13:50:48;;;;;;;;;;;22.10;99.90;;;;;;5002265;28;19989;-78
2023/08/04 13:53:15;;;;;;;;;;;22.10;99.90;;;;;;4991715;28;19964;-77
2023/08/04 13:55:41;;;;;;;;;;;22.10;99.90;;;;;;4993690;28;19965;-77
2023/08/04 13:58:08;;;;;;;;;;;22.30;99.90;;;;;;4998023;28;20497;-77
2023/08/04 14:00:35;;;;;;;;;;;22.60;99.90;;;;;;5005333;28;19929;-77
2023/08/04 14:03:02;;;;;;;;;;;22.70;99.90;;;;;;4996876;28;20000;-78
2023/08/04 14:05:29;;;;;;;;;;;22.70;99.90;;;;;;4988376;28;20263;-77
2023/08/04 14:07:57;;;;;;;;;;;22.80;99.90;;;;;;5000325;28;19949;-77
2023/08/04 14:10:24;;;;;;;;;;;22.80;99.90;;;;;;5008551;28;19996;-78
2023/08/04 14:12:50;;;;;;;;;;;22.70;99.90;;;;;;5009527;28;20200;-77
2023/08/04 14:15:17;;;;;;;;;;;22.70;99.90;;;;;;5008607;28;19957;-77
2023/08/04 14:17:43;;;;;;;;;;;22.70;99.90;;;;;;5009274;28;19957;-77
2023/08/04 14:20:14;;;;;;;;;;;22.70;99.90;;;;;;5004071;28;19929;-78
2023/08/04 14:22:41;;;;;;;;;;;22.80;99.90;;;;;;4999709;28;19922;-77
2023/08/04 14:25:09;;;;;;;;;;;23.00;99.90;;;;;;4998031;28;19954;-77
2023/08/04 14:27:36;;;;;;;;;;;23.00;99.90;;;;;;5004287;28;19953;-78
2023/08/04 14:30:03;;;;;;;;;;;23.00;99.90;;;;;;5008290;28;20120;-77
2023/08/04 14:32:29;;;;;;;;;;;23.00;99.90;;;;;;4992610;28;19944;-77
2023/08/04 14:34:56;;;;;;;;;;;22.90;99.90;;;;;;4993395;28;20261;-77
2023/08/04 14:37:23;;;;;;;;;;;22.90;99.90;;;;;;4998130;28;20009;-77
2023/08/04 14:39:49;;;;;;;;;;;22.90;99.90;;;;;;4988914;28;19950;-77